sensor_id;sensor_type;location;lat;lon;timestamp;temperature;humidity
2993;DHT22;1506;48.932;9.478;2023-04-03T00:00:56;3.30;1.00
2993;DHT22;1506;48.932;9.478;2023-04-03T00:03:23;3.20;1.00
2993;DHT22;1506;48.932;9.478;2023-04-03T00:05:50;3.20;1.00
2993;DHT22;1506;48.932;9.478;2023-04-03T00:08:17;3.30;1.00
2993;DHT22;1506;48.932;9.478;2023-04-03T00:10:44;3.30;1.00
2993;DHT22;1506;48.932;9.478;2023-04-03T00:13:12;3.30;1.00
2993;DHT22;1506;48.932;9.478;2023-04-03T00:15:39;3.40;1.00
2993;DHT22;1506;48.932;9.478;2023-04-03T00:18:07;3.30;1.00
2993;DHT22;1506;48.932;9.478;2023-04-03T00:20:34;3.40;1.00
2993;DHT22;1506;48.932;9.478;2023-04-03T00:23:03;3.50;1.00
2993;DHT22;1506;48.932;9.478;2023-04-03T00:25:30;3.50;1.00
2993;DHT22;1506;48.932;9.478;2023-04-03T00:27:57;3.50;1.00
2993;DHT22;1506;48.932;9.478;2023-04-03T00:30:25;3.50;1.00
2993;DHT22;1506;48.932;9.478;2023-04-03T00:32:53;3.50;1.00
2993;DHT22;1506;48.932;9.478;2023-04-03T00:35:21;3.40;1.00
2993;DHT22;1506;48.932;9.478;2023-04-03T00:37:51;3.40;1.00
2993;DHT22;1506;48.932;9.478;2023-04-03T00:40:20;3.40;1.00
2993;DHT22;1506;48.932;9.478;2023-04-03T06:38:01;4.60;1.00
2993;DHT22;1506;48.932;9.478;2023-04-03T06:40:30;5.10;1.00
2993;DHT22;1506;48.932;9.478;2023-04-03T06:42:57;5.00;99.90
2993;DHT22;1506;48.932;9.478;2023-04-03T06:45:24;4.80;99.90
2993;DHT22;1506;48.932;9.478;2023-04-03T06:47:52;4.70;99.90
2993;DHT22;1506;48.932;9.478;2023-04-03T06:50:19;4.30;99.90
2993;DHT22;1506;48.932;9.478;2023-04-03T06:52:46;4.30;1.00
2993;DHT22;1506;48.932;9.478;2023-04-03T07:29:40;5.40;99.90
2993;DHT22;1506;48.932;9.478;2023-04-03T07:32:07;6.50;1.00
2993;DHT22;1506;48.932;9.478;2023-04-03T07:34:35;6.90;99.90
2993;DHT22;1506;48.932;9.478;2023-04-03T07:37:02;7.10;99.90
2993;DHT22;1506;48.932;9.478;2023-04-03T07:39:30;6.60;99.90
2993;DHT22;1506;48.932;9.478;2023-04-03T07:41:57;6.30;99.90
2993;DHT22;1506;48.932;9.478;2023-04-03T07:44:24;6.00;80.10
2993;DHT22;1506;48.932;9.478;2023-04-03T07:46:51;5.80;99.90
2993;DHT22;1506;48.932;9.478;2023-04-03T07:49:18;5.60;1.00
2993;DHT22;1506;48.932;9.478;2023-04-03T07:51:45;5.60;99.90
2993;DHT22;1506;48.932;9.478;2023-04-03T07:54:13;5.90;99.90
2993;DHT22;1506;48.932;9.478;2023-04-03T07:59:09;5.70;1.00
2993;DHT22;1506;48.932;9.478;2023-04-03T08:01:37;6.10;1.00
2993;DHT22;1506;48.932;9.478;2023-04-03T08:04:04;6.10;99.90
2993;DHT22;1506;48.932;9.478;2023-04-03T08:06:33;6.00;99.90
2993;DHT22;1506;48.932;9.478;2023-04-03T08:09:13;6.10;1.00
2993;DHT22;1506;48.932;9.478;2023-04-03T08:11:42;6.20;1.00
2993;DHT22;1506;48.932;9.478;2023-04-03T08:14:09;6.50;99.90
2993;DHT22;1506;48.932;9.478;2023-04-03T08:16:43;6.80;99.90
2993;DHT22;1506;48.932;9.478;2023-04-03T08:19:12;6.70;99.90
2993;DHT22;1506;48.932;9.478;2023-04-03T08:21:50;6.60;73.00
2993;DHT22;1506;48.932;9.478;2023-04-03T08:24:17;6.10;1.00
2993;DHT22;1506;48.932;9.478;2023-04-03T08:26:44;5.70;99.90
2993;DHT22;1506;48.932;9.478;2023-04-03T08:29:11;5.60;1.00
2993;DHT22;1506;48.932;9.478;2023-04-03T08:34:06;6.40;1.00
2993;DHT22;1506;48.932;9.478;2023-04-03T08:36:33;6.60;1.00
2993;DHT22;1506;48.932;9.478;2023-04-03T08:39:00;6.90;99.90
2993;DHT22;1506;48.932;9.478;2023-04-03T10:16:18;7.10;99.90
2993;DHT22;1506;48.932;9.478;2023-04-03T10:22:00;7.10;99.90
2993;DHT22;1506;48.932;9.478;2023-04-03T10:24:52;7.00;99.90
2993;DHT22;1506;48.932;9.478;2023-04-03T10:33:20;7.00;99.90
2993;DHT22;1506;48.932;9.478;2023-04-03T10:42:00;6.60;99.90
2993;DHT22;1506;48.932;9.478;2023-04-03T10:48:40;6.50;99.90
2993;DHT22;1506;48.932;9.478;2023-04-03T10:50:52;6.20;99.90
2993;DHT22;1506;48.932;9.478;2023-04-03T10:53:31;6.40;1.00
2993;DHT22;1506;48.932;9.478;2023-04-03T10:56:12;6.40;99.90
2993;DHT22;1506;48.932;9.478;2023-04-03T10:58:45;6.50;1.00
2993;DHT22;1506;48.932;9.478;2023-04-03T11:01:19;6.70;99.90
2993;DHT22;1506;48.932;9.478;2023-04-03T11:03:58;6.60;99.90
2993;DHT22;1506;48.932;9.478;2023-04-03T11:06:35;6.70;99.90
2993;DHT22;1506;48.932;9.478;2023-04-03T11:09:25;6.80;99.90
2993;DHT22;1506;48.932;9.478;2023-04-03T11:12:02;6.90;99.90
2993;DHT22;1506;48.932;9.478;2023-04-03T11:14:36;6.60;99.90
2993;DHT22;1506;48.932;9.478;2023-04-03T11:20:06;6.30;99.90
2993;DHT22;1506;48.932;9.478;2023-04-03T11:22:42;5.90;99.90
2993;DHT22;1506;48.932;9.478;2023-04-03T11:36:19;6.30;1.00
2993;DHT22;1506;48.932;9.478;2023-04-03T11:39:10;6.80;19.50
2993;DHT22;1506;48.932;9.478;2023-04-03T11:41:52;7.20;25.30
2993;DHT22;1506;48.932;9.478;2023-04-03T11:44:38;7.30;1.00
2993;DHT22;1506;48.932;9.478;2023-04-03T11:47:07;7.00;1.00
2993;DHT22;1506;48.932;9.478;2023-04-03T12:16:26;7.10;1.00
2993;DHT22;1506;48.932;9.478;2023-04-03T12:26:45;6.90;1.00
2993;DHT22;1506;48.932;9.478;2023-04-03T12:35:14;7.00;1.00
2993;DHT22;1506;48.932;9.478;2023-04-03T12:37:57;7.00;99.90
2993;DHT22;1506;48.932;9.478;2023-04-03T12:57:20;8.00;14.00
2993;DHT22;1506;48.932;9.478;2023-04-03T12:59:50;7.40;1.00
2993;DHT22;1506;48.932;9.478;2023-04-03T13:05:04;7.50;81.10
2993;DHT22;1506;48.932;9.478;2023-04-03T13:41:24;8.50;41.20
2993;DHT22;1506;48.932;9.478;2023-04-03T13:43:53;8.30;1.00
2993;DHT22;1506;48.932;9.478;2023-04-03T13:46:32;7.80;1.00
2993;DHT22;1506;48.932;9.478;2023-04-03T13:51:55;7.40;1.00
2993;DHT22;1506;48.932;9.478;2023-04-03T13:54:38;7.30;1.00
2993;DHT22;1506;48.932;9.478;2023-04-03T13:57:14;7.30;1.00
2993;DHT22;1506;48.932;9.478;2023-04-03T13:59:43;7.30;1.00
2993;DHT22;1506;48.932;9.478;2023-04-03T14:02:14;7.20;1.00
2993;DHT22;1506;48.932;9.478;2023-04-03T14:04:57;7.30;1.00
2993;DHT22;1506;48.932;9.478;2023-04-03T14:07:29;7.00;1.00
2993;DHT22;1506;48.932;9.478;2023-04-03T14:09:57;7.20;1.00
2993;DHT22;1506;48.932;9.478;2023-04-03T14:12:43;7.30;1.00
2993;DHT22;1506;48.932;9.478;2023-04-03T14:15:22;7.50;1.00
2993;DHT22;1506;48.932;9.478;2023-04-03T14:17:51;7.40;1.00
2993;DHT22;1506;48.932;9.478;2023-04-03T14:20:21;7.60;1.00
2993;DHT22;1506;48.932;9.478;2023-04-03T14:22:50;7.50;1.00
2993;DHT22;1506;48.932;9.478;2023-04-03T14:25:18;7.40;1.00
2993;DHT22;1506;48.932;9.478;2023-04-03T14:27:48;7.30;1.00
2993;DHT22;1506;48.932;9.478;2023-04-03T14:30:32;7.40;1.00
2993;DHT22;1506;48.932;9.478;2023-04-03T14:33:00;7.30;1.00
2993;DHT22;1506;48.932;9.478;2023-04-03T14:35:27;7.20;1.00
2993;DHT22;1506;48.932;9.478;2023-04-03T14:37:55;7.10;1.00
2993;DHT22;1506;48.932;9.478;2023-04-03T14:40:25;7.10;1.00
2993;DHT22;1506;48.932;9.478;2023-04-03T14:42:54;7.10;1.00
2993;DHT22;1506;48.932;9.478;2023-04-03T14:45:22;7.10;1.00
2993;DHT22;1506;48.932;9.478;2023-04-03T14:47:54;7.00;1.00
2993;DHT22;1506;48.932;9.478;2023-04-03T14:50:24;6.90;1.00
2993;DHT22;1506;48.932;9.478;2023-04-03T14:52:55;7.10;1.00
2993;DHT22;1506;48.932;9.478;2023-04-03T14:55:24;7.40;1.00
2993;DHT22;1506;48.932;9.478;2023-04-03T14:57:53;7.50;1.00
2993;DHT22;1506;48.932;9.478;2023-04-03T15:00:21;7.60;1.00
2993;DHT22;1506;48.932;9.478;2023-04-03T15:02:49;7.90;1.00
2993;DHT22;1506;48.932;9.478;2023-04-03T15:05:16;7.70;1.00
2993;DHT22;1506;48.932;9.478;2023-04-03T15:07:53;7.40;1.00
2993;DHT22;1506;48.932;9.478;2023-04-03T15:10:28;7.30;1.00
2993;DHT22;1506;48.932;9.478;2023-04-03T15:12:56;7.30;1.00
2993;DHT22;1506;48.932;9.478;2023-04-03T15:15:24;7.20;1.00
2993;DHT22;1506;48.932;9.478;2023-04-03T15:17:54;7.00;1.00
2993;DHT22;1506;48.932;9.478;2023-04-03T15:20:24;7.00;1.00
2993;DHT22;1506;48.932;9.478;2023-04-03T15:22:53;7.00;1.00
2993;DHT22;1506;48.932;9.478;2023-04-03T15:25:23;7.20;1.00
2993;DHT22;1506;48.932;9.478;2023-04-03T15:27:53;7.40;1.00
2993;DHT22;1506;48.932;9.478;2023-04-03T15:30:21;7.60;1.00
2993;DHT22;1506;48.932;9.478;2023-04-03T15:32:48;7.60;99.90
2993;DHT22;1506;48.932;9.478;2023-04-03T15:35:15;7.50;99.90
2993;DHT22;1506;48.932;9.478;2023-04-03T15:37:42;7.70;99.90
2993;DHT22;1506;48.932;9.478;2023-04-03T15:40:09;7.60;99.90
2993;DHT22;1506;48.932;9.478;2023-04-03T15:42:37;7.50;99.90
2993;DHT22;1506;48.932;9.478;2023-04-03T15:45:05;7.40;99.90
2993;DHT22;1506;48.932;9.478;2023-04-03T15:47:32;7.40;81.00
2993;DHT22;1506;48.932;9.478;2023-04-03T15:49:59;7.50;56.20
2993;DHT22;1506;48.932;9.478;2023-04-03T15:52:26;7.60;41.30
2993;DHT22;1506;48.932;9.478;2023-04-03T15:54:53;7.70;29.30
2993;DHT22;1506;48.932;9.478;2023-04-03T15:57:20;7.80;53.50
2993;DHT22;1506;48.932;9.478;2023-04-03T15:59:53;7.70;23.10
2993;DHT22;1506;48.932;9.478;2023-04-03T16:02:20;7.50;21.90
2993;DHT22;1506;48.932;9.478;2023-04-03T16:04:48;7.40;33.90
2993;DHT22;1506;48.932;9.478;2023-04-03T16:07:15;7.20;43.20
2993;DHT22;1506;48.932;9.478;2023-04-03T16:09:42;7.10;3.20
2993;DHT22;1506;48.932;9.478;2023-04-03T16:12:09;7.10;4.10
2993;DHT22;1506;48.932;9.478;2023-04-03T16:14:36;6.90;1.10
2993;DHT22;1506;48.932;9.478;2023-04-03T16:17:03;7.00;1.00
2993;DHT22;1506;48.932;9.478;2023-04-03T16:19:30;7.00;1.00
2993;DHT22;1506;48.932;9.478;2023-04-03T16:21:57;7.00;1.00
2993;DHT22;1506;48.932;9.478;2023-04-03T16:24:24;7.00;1.00
2993;DHT22;1506;48.932;9.478;2023-04-03T16:26:51;7.10;1.00
2993;DHT22;1506;48.932;9.478;2023-04-03T16:29:20;7.10;1.00
2993;DHT22;1506;48.932;9.478;2023-04-03T16:31:47;7.00;1.00
2993;DHT22;1506;48.932;9.478;2023-04-03T16:34:14;7.00;1.00
2993;DHT22;1506;48.932;9.478;2023-04-03T16:36:42;6.90;1.00
2993;DHT22;1506;48.932;9.478;2023-04-03T16:39:09;6.80;1.00
2993;DHT22;1506;48.932;9.478;2023-04-03T16:41:36;6.60;1.00
2993;DHT22;1506;48.932;9.478;2023-04-03T16:44:04;6.50;1.00
2993;DHT22;1506;48.932;9.478;2023-04-03T16:46:33;6.40;1.00
2993;DHT22;1506;48.932;9.478;2023-04-03T16:49:01;6.40;1.00
2993;DHT22;1506;48.932;9.478;2023-04-03T16:51:28;6.30;1.00
2993;DHT22;1506;48.932;9.478;2023-04-03T16:53:55;6.30;1.00
2993;DHT22;1506;48.932;9.478;2023-04-03T16:56:22;6.40;1.00
2993;DHT22;1506;48.932;9.478;2023-04-03T16:58:49;6.50;1.00
2993;DHT22;1506;48.932;9.478;2023-04-03T17:01:18;6.70;1.00
2993;DHT22;1506;48.932;9.478;2023-04-03T17:03:46;6.80;1.00
2993;DHT22;1506;48.932;9.478;2023-04-03T17:06:19;6.80;1.00
2993;DHT22;1506;48.932;9.478;2023-04-03T17:08:48;6.70;1.00
2993;DHT22;1506;48.932;9.478;2023-04-03T17:11:28;6.60;1.00
2993;DHT22;1506;48.932;9.478;2023-04-03T17:13:56;6.40;1.00
2993;DHT22;1506;48.932;9.478;2023-04-03T17:16:24;6.30;1.00
2993;DHT22;1506;48.932;9.478;2023-04-03T17:18:52;6.20;1.00
2993;DHT22;1506;48.932;9.478;2023-04-03T17:21:20;6.10;1.00
2993;DHT22;1506;48.932;9.478;2023-04-03T17:23:51;6.10;1.00
2993;DHT22;1506;48.932;9.478;2023-04-03T17:26:24;6.10;1.00
2993;DHT22;1506;48.932;9.478;2023-04-03T17:28:53;6.10;2.00
2993;DHT22;1506;48.932;9.478;2023-04-03T17:31:20;6.00;4.40
2993;DHT22;1506;48.932;9.478;2023-04-03T17:33:47;5.90;1.00
2993;DHT22;1506;48.932;9.478;2023-04-03T17:36:14;5.80;1.00
2993;DHT22;1506;48.932;9.478;2023-04-03T17:38:41;5.80;1.00
2993;DHT22;1506;48.932;9.478;2023-04-03T17:41:08;5.70;1.00
2993;DHT22;1506;48.932;9.478;2023-04-03T17:43:35;5.70;1.00
2993;DHT22;1506;48.932;9.478;2023-04-03T17:46:08;5.70;1.00
2993;DHT22;1506;48.932;9.478;2023-04-03T17:48:37;5.60;1.00
2993;DHT22;1506;48.932;9.478;2023-04-03T17:51:15;5.50;1.00
2993;DHT22;1506;48.932;9.478;2023-04-03T17:53:44;5.50;1.00
2993;DHT22;1506;48.932;9.478;2023-04-03T17:56:14;5.50;1.00
2993;DHT22;1506;48.932;9.478;2023-04-03T17:58:49;5.50;1.00
2993;DHT22;1506;48.932;9.478;2023-04-03T18:01:20;5.50;1.00
2993;DHT22;1506;48.932;9.478;2023-04-03T18:03:52;5.40;1.00
2993;DHT22;1506;48.932;9.478;2023-04-03T18:06:25;5.40;1.00
2993;DHT22;1506;48.932;9.478;2023-04-03T18:09:27;5.30;1.00
2993;DHT22;1506;48.932;9.478;2023-04-03T18:11:56;5.30;1.00
2993;DHT22;1506;48.932;9.478;2023-04-03T18:14:25;5.20;1.00
2993;DHT22;1506;48.932;9.478;2023-04-03T18:16:53;5.20;1.00
2993;DHT22;1506;48.932;9.478;2023-04-03T18:19:23;5.10;16.60
2993;DHT22;1506;48.932;9.478;2023-04-03T18:22:01;5.10;1.00
2993;DHT22;1506;48.932;9.478;2023-04-03T18:24:33;5.20;10.50
2993;DHT22;1506;48.932;9.478;2023-04-03T18:27:06;5.20;10.80
2993;DHT22;1506;48.932;9.478;2023-04-03T18:29:37;5.10;1.00
2993;DHT22;1506;48.932;9.478;2023-04-03T18:32:09;5.10;19.00
2993;DHT22;1506;48.932;9.478;2023-04-03T18:34:39;5.10;1.00
2993;DHT22;1506;48.932;9.478;2023-04-03T18:37:06;5.10;10.90
2993;DHT22;1506;48.932;9.478;2023-04-03T18:39:33;5.10;6.10
2993;DHT22;1506;48.932;9.478;2023-04-03T18:42:26;5.10;1.00
2993;DHT22;1506;48.932;9.478;2023-04-03T18:44:58;5.10;8.40
2993;DHT22;1506;48.932;9.478;2023-04-03T18:47:28;5.00;18.90
2993;DHT22;1506;48.932;9.478;2023-04-03T18:49:55;5.00;14.00
2993;DHT22;1506;48.932;9.478;2023-04-03T18:52:23;5.10;13.20
2993;DHT22;1506;48.932;9.478;2023-04-03T18:54:53;5.00;14.40
2993;DHT22;1506;48.932;9.478;2023-04-03T18:57:20;4.90;97.20
2993;DHT22;1506;48.932;9.478;2023-04-03T18:59:47;4.70;90.70
2993;DHT22;1506;48.932;9.478;2023-04-03T19:02:14;4.60;91.50
2993;DHT22;1506;48.932;9.478;2023-04-03T19:04:42;4.50;85.90
2993;DHT22;1506;48.932;9.478;2023-04-03T19:07:09;4.40;92.10
2993;DHT22;1506;48.932;9.478;2023-04-03T19:09:36;4.30;93.90
2993;DHT22;1506;48.932;9.478;2023-04-03T19:12:06;4.30;96.10
2993;DHT22;1506;48.932;9.478;2023-04-03T19:14:33;4.30;99.90
2993;DHT22;1506;48.932;9.478;2023-04-03T19:17:00;4.20;99.90
2993;DHT22;1506;48.932;9.478;2023-04-03T19:19:28;4.10;99.90
2993;DHT22;1506;48.932;9.478;2023-04-03T19:21:56;4.00;99.90
2993;DHT22;1506;48.932;9.478;2023-04-03T19:24:23;4.00;99.90
2993;DHT22;1506;48.932;9.478;2023-04-03T19:26:50;3.90;99.90
2993;DHT22;1506;48.932;9.478;2023-04-03T19:29:17;3.80;99.90
2993;DHT22;1506;48.932;9.478;2023-04-03T19:31:44;3.60;99.90
2993;DHT22;1506;48.932;9.478;2023-04-03T19:34:11;3.60;99.90
2993;DHT22;1506;48.932;9.478;2023-04-03T19:36:38;3.60;97.20
2993;DHT22;1506;48.932;9.478;2023-04-03T19:39:05;3.60;99.90
2993;DHT22;1506;48.932;9.478;2023-04-03T19:41:35;3.60;97.40
2993;DHT22;1506;48.932;9.478;2023-04-03T19:44:04;3.60;99.50
2993;DHT22;1506;48.932;9.478;2023-04-03T19:46:33;3.50;99.90
2993;DHT22;1506;48.932;9.478;2023-04-03T19:49:01;3.50;96.70
2993;DHT22;1506;48.932;9.478;2023-04-03T19:51:28;3.40;94.60
2993;DHT22;1506;48.932;9.478;2023-04-03T19:53:55;3.40;93.90
2993;DHT22;1506;48.932;9.478;2023-04-03T19:56:22;3.30;94.20
2993;DHT22;1506;48.932;9.478;2023-04-03T19:58:49;3.30;99.80
2993;DHT22;1506;48.932;9.478;2023-04-03T20:01:24;3.20;99.40
2993;DHT22;1506;48.932;9.478;2023-04-03T20:03:53;3.30;99.80
2993;DHT22;1506;48.932;9.478;2023-04-03T20:06:20;3.20;99.90
2993;DHT22;1506;48.932;9.478;2023-04-03T20:08:47;3.20;99.90
2993;DHT22;1506;48.932;9.478;2023-04-03T20:11:15;3.10;99.90
2993;DHT22;1506;48.932;9.478;2023-04-03T20:13:42;3.10;99.90
2993;DHT22;1506;48.932;9.478;2023-04-03T20:16:09;3.10;99.90
2993;DHT22;1506;48.932;9.478;2023-04-03T20:18:36;3.00;99.90
2993;DHT22;1506;48.932;9.478;2023-04-03T20:21:05;2.90;99.90
2993;DHT22;1506;48.932;9.478;2023-04-03T20:23:33;2.80;99.90
2993;DHT22;1506;48.932;9.478;2023-04-03T20:26:04;2.80;99.90
2993;DHT22;1506;48.932;9.478;2023-04-03T20:28:40;2.80;99.90
2993;DHT22;1506;48.932;9.478;2023-04-03T20:31:08;2.80;99.90
2993;DHT22;1506;48.932;9.478;2023-04-03T20:33:37;2.80;99.90
2993;DHT22;1506;48.932;9.478;2023-04-03T20:36:04;2.70;99.90
2993;DHT22;1506;48.932;9.478;2023-04-03T20:38:32;2.80;99.90
2993;DHT22;1506;48.932;9.478;2023-04-03T20:40:59;2.70;99.90
2993;DHT22;1506;48.932;9.478;2023-04-03T20:43:26;2.60;99.90
2993;DHT22;1506;48.932;9.478;2023-04-03T20:45:54;2.60;99.90
2993;DHT22;1506;48.932;9.478;2023-04-03T20:48:22;2.60;99.90
2993;DHT22;1506;48.932;9.478;2023-04-03T20:50:49;2.50;99.90
2993;DHT22;1506;48.932;9.478;2023-04-03T20:53:16;2.50;99.90
2993;DHT22;1506;48.932;9.478;2023-04-03T20:55:55;2.50;99.90
2993;DHT22;1506;48.932;9.478;2023-04-03T20:58:22;2.50;99.90
2993;DHT22;1506;48.932;9.478;2023-04-03T21:00:50;2.40;99.90
2993;DHT22;1506;48.932;9.478;2023-04-03T21:03:18;2.40;99.90
2993;DHT22;1506;48.932;9.478;2023-04-03T21:05:45;2.30;99.90
2993;DHT22;1506;48.932;9.478;2023-04-03T21:21:32;2.10;99.90
2993;DHT22;1506;48.932;9.478;2023-04-03T21:24:04;2.10;99.90
2993;DHT22;1506;48.932;9.478;2023-04-03T21:26:33;2.10;99.90
2993;DHT22;1506;48.932;9.478;2023-04-03T21:29:00;2.00;99.90
2993;DHT22;1506;48.932;9.478;2023-04-03T21:31:56;2.10;99.90
2993;DHT22;1506;48.932;9.478;2023-04-03T21:34:29;2.10;99.90
2993;DHT22;1506;48.932;9.478;2023-04-03T21:37:04;2.00;99.90
2993;DHT22;1506;48.932;9.478;2023-04-03T21:39:32;1.90;99.90
2993;DHT22;1506;48.932;9.478;2023-04-03T21:41:59;1.90;99.90
2993;DHT22;1506;48.932;9.478;2023-04-03T21:44:27;1.90;99.90
2993;DHT22;1506;48.932;9.478;2023-04-03T21:46:54;1.80;99.90
2993;DHT22;1506;48.932;9.478;2023-04-03T21:49:22;1.90;99.90
2993;DHT22;1506;48.932;9.478;2023-04-03T21:51:50;1.80;99.90
2993;DHT22;1506;48.932;9.478;2023-04-03T21:54:18;1.80;99.90
2993;DHT22;1506;48.932;9.478;2023-04-03T21:56:46;1.70;99.90
2993;DHT22;1506;48.932;9.478;2023-04-03T21:59:18;1.70;99.90
2993;DHT22;1506;48.932;9.478;2023-04-03T22:01:45;1.70;99.90
2993;DHT22;1506;48.932;9.478;2023-04-03T22:04:12;1.70;99.90
2993;DHT22;1506;48.932;9.478;2023-04-03T22:06:39;1.70;99.90
2993;DHT22;1506;48.932;9.478;2023-04-03T22:09:06;1.70;99.90
2993;DHT22;1506;48.932;9.478;2023-04-03T22:11:33;1.70;99.90
2993;DHT22;1506;48.932;9.478;2023-04-03T22:14:00;1.60;99.90
2993;DHT22;1506;48.932;9.478;2023-04-03T22:16:27;1.70;99.90
2993;DHT22;1506;48.932;9.478;2023-04-03T22:18:54;1.70;99.90
2993;DHT22;1506;48.932;9.478;2023-04-03T22:21:24;1.60;99.90
2993;DHT22;1506;48.932;9.478;2023-04-03T22:23:52;1.60;99.90
2993;DHT22;1506;48.932;9.478;2023-04-03T22:26:20;1.60;99.90
2993;DHT22;1506;48.932;9.478;2023-04-03T22:28:47;1.60;99.90
2993;DHT22;1506;48.932;9.478;2023-04-03T22:31:14;1.50;99.90
2993;DHT22;1506;48.932;9.478;2023-04-03T22:33:43;1.50;99.90
2993;DHT22;1506;48.932;9.478;2023-04-03T22:36:12;1.50;99.90
2993;DHT22;1506;48.932;9.478;2023-04-03T22:38:40;1.50;99.90
2993;DHT22;1506;48.932;9.478;2023-04-03T22:41:10;1.50;99.90
2993;DHT22;1506;48.932;9.478;2023-04-03T22:43:38;1.40;99.90
2993;DHT22;1506;48.932;9.478;2023-04-03T22:46:07;1.40;99.90
2993;DHT22;1506;48.932;9.478;2023-04-03T22:48:36;1.40;99.90
2993;DHT22;1506;48.932;9.478;2023-04-03T22:51:08;1.40;99.90
2993;DHT22;1506;48.932;9.478;2023-04-03T22:53:35;1.30;99.90
2993;DHT22;1506;48.932;9.478;2023-04-03T22:56:05;1.30;99.90
2993;DHT22;1506;48.932;9.478;2023-04-03T22:58:39;1.30;99.90
2993;DHT22;1506;48.932;9.478;2023-04-03T23:01:08;1.20;99.90
2993;DHT22;1506;48.932;9.478;2023-04-03T23:03:39;1.20;99.90
2993;DHT22;1506;48.932;9.478;2023-04-03T23:06:08;1.10;99.90
2993;DHT22;1506;48.932;9.478;2023-04-03T23:08:36;1.10;99.90
2993;DHT22;1506;48.932;9.478;2023-04-03T23:11:05;1.10;99.90
2993;DHT22;1506;48.932;9.478;2023-04-03T23:13:35;1.10;99.90
2993;DHT22;1506;48.932;9.478;2023-04-03T23:16:03;1.10;99.90
2993;DHT22;1506;48.932;9.478;2023-04-03T23:18:31;1.10;99.90
2993;DHT22;1506;48.932;9.478;2023-04-03T23:20:59;1.10;99.90
2993;DHT22;1506;48.932;9.478;2023-04-03T23:23:27;1.00;99.90
2993;DHT22;1506;48.932;9.478;2023-04-03T23:25:55;1.00;1.00
2993;DHT22;1506;48.932;9.478;2023-04-03T23:28:25;1.00;1.00
2993;DHT22;1506;48.932;9.478;2023-04-03T23:31:00;1.00;1.00
2993;DHT22;1506;48.932;9.478;2023-04-03T23:33:30;0.90;1.00
2993;DHT22;1506;48.932;9.478;2023-04-03T23:36:04;0.90;1.00
2993;DHT22;1506;48.932;9.478;2023-04-03T23:38:34;0.90;1.00
2993;DHT22;1506;48.932;9.478;2023-04-03T23:41:01;0.80;1.00
2993;DHT22;1506;48.932;9.478;2023-04-03T23:43:28;0.80;1.00
2993;DHT22;1506;48.932;9.478;2023-04-03T23:45:56;0.70;1.00
2993;DHT22;1506;48.932;9.478;2023-04-03T23:48:24;0.70;1.00
2993;DHT22;1506;48.932;9.478;2023-04-03T23:50:51;0.70;1.00
2993;DHT22;1506;48.932;9.478;2023-04-03T23:53:18;0.70;1.00
2993;DHT22;1506;48.932;9.478;2023-04-03T23:55:45;0.50;1.00
2993;DHT22;1506;48.932;9.478;2023-04-03T23:58:12;0.50;1.00
